Time;durP1;ratioP1;P1;durP2;ratioP2;P2;SDS_P1;SDS_P2;PMS_P1;PMS_P2;Temp;Humidity;BMP_temperature;BMP_pressure;BME280_temperature;BME280_humidity;BME280_pressure;Samples;Min_cycle;Max_cycle;Signal;HPM_P1;HPM_P2
2023/08/01 00:00:30;;;;;;;15.43;4.55;;;16.50;99.90;;;;;;5046019;28;20136;-66
2023/08/01 00:02:56;;;;;;;14.77;4.43;;;16.50;99.90;;;;;;5028960;28;20067;-65
2023/08/01 00:05:22;;;;;;;14.93;4.72;;;16.40;99.90;;;;;;5065744;28;20043;-64
2023/08/01 00:07:47;;;;;;;16.42;4.80;;;16.40;99.90;;;;;;5048991;28;20033;-64
2023/08/01 00:10:13;;;;;;;18.52;4.88;;;16.40;99.90;;;;;;5067499;28;20047;-64
2023/08/01 00:12:38;;;;;;;13.48;4.53;;;16.40;99.90;;;;;;5065211;28;20095;-63
2023/08/01 00:15:05;;;;;;;24.23;5.35;;;16.40;99.90;;;;;;5049478;28;20683;-63
2023/08/01 00:17:30;;;;;;;17.40;4.88;;;16.40;99.90;;;;;;5049206;28;20084;-64
2023/08/01 00:19:56;;;;;;;16.17;4.30;;;16.40;99.90;;;;;;5032217;28;20075;-64
2023/08/01 00:22:22;;;;;;;16.58;5.18;;;16.40;99.90;;;;;;5048972;28;20040;-64
2023/08/01 00:24:47;;;;;;;19.88;4.90;;;16.40;99.90;;;;;;5048067;28;20159;-66
2023/08/01 00:27:14;;;;;;;18.08;4.95;;;16.40;99.90;;;;;;5047714;28;20483;-66
2023/08/01 00:29:39;;;;;;;21.02;4.88;;;16.30;99.90;;;;;;5031437;28;20043;-65
2023/08/01 00:32:05;;;;;;;15.15;5.65;;;16.30;99.90;;;;;;5065493;28;20037;-66
2023/08/01 00:34:31;;;;;;;18.98;5.18;;;16.30;99.90;;;;;;5056824;28;20041;-70
2023/08/01 00:36:57;;;;;;;15.73;5.40;;;16.30;99.90;;;;;;5028849;28;20037;-66
2023/08/01 00:39:23;;;;;;;21.15;4.70;;;16.30;99.90;;;;;;5043322;28;20098;-63
2023/08/01 00:41:48;;;;;;;12.05;4.65;;;16.30;99.90;;;;;;5065172;28;20045;-66
2023/08/01 00:44:14;;;;;;;15.18;4.72;;;16.20;99.90;;;;;;5048804;28;20124;-68
2023/08/01 00:46:39;;;;;;;11.35;4.07;;;16.20;99.90;;;;;;5045654;28;20036;-64
2023/08/01 00:49:05;;;;;;;11.95;4.32;;;16.10;99.90;;;;;;5036070;28;20213;-64
2023/08/01 00:51:32;;;;;;;11.65;4.30;;;16.00;99.90;;;;;;5048668;28;20041;-65
2023/08/01 00:53:58;;;;;;;12.40;4.63;;;16.00;99.90;;;;;;5036629;28;20048;-67
2023/08/01 00:56:24;;;;;;;13.30;4.10;;;15.90;99.90;;;;;;5045092;28;20250;-64
2023/08/01 00:58:50;;;;;;;11.27;3.92;;;15.90;99.90;;;;;;5028674;28;20131;-64
2023/08/01 01:01:15;;;;;;;14.32;3.83;;;15.80;99.90;;;;;;5016183;28;20136;-62
2023/08/01 01:03:41;;;;;;;14.10;3.78;;;15.80;99.90;;;;;;5044543;28;20052;-62
2023/08/01 01:06:24;;;;;;;10.70;4.30;;;15.80;99.90;;;;;;5044409;28;20040;-65
2023/08/01 01:08:49;;;;;;;10.68;4.13;;;15.80;99.90;;;;;;5028075;28;20579;-64
2023/08/01 01:11:15;;;;;;;9.85;3.97;;;15.70;99.90;;;;;;5043701;28;20033;-63
2023/08/01 01:13:41;;;;;;;11.48;4.20;;;15.70;99.90;;;;;;5044704;28;20091;-63
2023/08/01 01:16:06;;;;;;;9.48;4.20;;;15.70;99.90;;;;;;5041172;28;20432;-63
2023/08/01 01:18:32;;;;;;;14.50;4.32;;;15.60;99.90;;;;;;5065415;28;20055;-65
2023/08/01 01:20:58;;;;;;;10.90;4.32;;;15.60;99.90;;;;;;5047257;28;20032;-63
2023/08/01 01:23:25;;;;;;;9.80;3.90;;;15.60;99.90;;;;;;5046471;28;20041;-64
2023/08/01 01:25:52;;;;;;;13.27;4.43;;;15.60;99.90;;;;;;5047688;28;20047;-65
2023/08/01 01:28:19;;;;;;;15.02;4.63;;;15.60;99.90;;;;;;5065858;28;20603;-64
2023/08/01 01:30:46;;;;;;;10.43;4.43;;;15.50;99.90;;;;;;5065365;28;20562;-63
2023/08/01 01:33:12;;;;;;;12.40;4.15;;;15.50;99.90;;;;;;5027150;28;20098;-63
2023/08/01 01:35:38;;;;;;;12.82;4.20;;;15.50;99.90;;;;;;5028162;28;20567;-64
2023/08/01 01:38:04;;;;;;;11.75;4.65;;;15.50;99.90;;;;;;5050593;28;20047;-65
2023/08/01 01:40:31;;;;;;;14.60;4.75;;;15.40;99.90;;;;;;5030207;28;20056;-64
2023/08/01 01:42:57;;;;;;;17.00;5.05;;;15.40;99.90;;;;;;5046153;28;20040;-64
2023/08/01 01:45:22;;;;;;;9.00;4.00;;;15.40;99.90;;;;;;5047333;28;20052;-66
2023/08/01 01:47:48;;;;;;;12.20;4.38;;;15.40;99.90;;;;;;5030029;28;20048;-64
2023/08/01 01:50:14;;;;;;;14.02;4.20;;;15.40;99.90;;;;;;5046867;28;20518;-65
2023/08/01 01:52:39;;;;;;;13.85;4.53;;;15.40;99.90;;;;;;5045750;28;20072;-64
2023/08/01 01:55:05;;;;;;;14.63;4.50;;;15.40;99.90;;;;;;5046137;28;20041;-64
2023/08/01 01:57:31;;;;;;;13.70;4.60;;;15.30;99.90;;;;;;5045948;28;20040;-62
2023/08/01 01:59:57;;;;;;;12.27;4.47;;;15.30;99.90;;;;;;5046447;28;20041;-65
2023/08/01 02:02:22;;;;;;;14.98;4.63;;;15.30;99.90;;;;;;5046543;28;20060;-63
2023/08/01 02:04:49;;;;;;;13.85;4.38;;;15.30;99.90;;;;;;5064085;28;20044;-64
2023/08/01 02:07:15;;;;;;;12.90;5.30;;;15.30;99.90;;;;;;5030019;28;20036;-64
2023/08/01 02:09:40;;;;;;;15.75;5.00;;;15.30;99.90;;;;;;5047501;28;20386;-64
2023/08/01 02:12:09;;;;;;;12.63;4.68;;;15.30;99.90;;;;;;5025161;28;20560;-64
2023/08/01 02:14:35;;;;;;;18.70;4.53;;;15.30;99.90;;;;;;5026459;28;20049;-64
2023/08/01 02:17:01;;;;;;;9.32;4.25;;;15.30;99.90;;;;;;5040985;28;20048;-65
2023/08/01 02:19:26;;;;;;;14.77;4.35;;;15.20;99.90;;;;;;5064383;28;20363;-63
2023/08/01 02:21:53;;;;;;;19.42;5.05;;;15.20;99.90;;;;;;5045982;28;20353;-65
2023/08/01 02:24:18;;;;;;;13.93;4.40;;;15.20;99.90;;;;;;5028942;28;20044;-65
2023/08/01 02:26:44;;;;;;;12.75;4.53;;;15.20;99.90;;;;;;5045041;28;20045;-64
2023/08/01 02:29:09;;;;;;;12.65;4.20;;;15.20;99.90;;;;;;5064062;28;20043;-63
2023/08/01 02:31:35;;;;;;;16.42;5.07;;;15.20;99.90;;;;;;5029593;28;20058;-63
2023/08/01 02:34:01;;;;;;;12.77;4.60;;;15.20;99.90;;;;;;5064006;28;20602;-63
2023/08/01 02:36:26;;;;;;;14.63;4.82;;;15.20;99.90;;;;;;5046279;28;20051;-65
2023/08/01 02:38:52;;;;;;;17.25;5.20;;;15.20;99.90;;;;;;5045128;28;20546;-65
2023/08/01 02:41:17;;;;;;;11.63;4.70;;;15.10;99.90;;;;;;5045131;28;20368;-63
2023/08/01 02:43:43;;;;;;;18.13;5.45;;;15.10;99.90;;;;;;5063968;28;20062;-63
2023/08/01 02:46:08;;;;;;;11.57;4.97;;;15.10;99.90;;;;;;5046095;28;20048;-63
2023/08/01 02:48:35;;;;;;;15.48;5.15;;;15.10;99.90;;;;;;5045682;28;20040;-64
2023/08/01 02:51:01;;;;;;;14.93;5.05;;;15.10;99.90;;;;;;5062526;28;20066;-64
2023/08/01 02:53:27;;;;;;;16.58;5.13;;;15.10;99.90;;;;;;5062832;28;20413;-65
2023/08/01 02:55:52;;;;;;;12.18;5.13;;;15.00;99.90;;;;;;5062613;28;20115;-64
2023/08/01 02:58:18;;;;;;;15.27;5.10;;;15.00;99.90;;;;;;5063593;28;20042;-63
2023/08/01 03:00:44;;;;;;;16.15;5.25;;;15.00;99.90;;;;;;5046158;28;20427;-64
2023/08/01 03:03:10;;;;;;;11.82;5.13;;;15.00;99.90;;;;;;5045590;28;20052;-64
2023/08/01 03:05:37;;;;;;;13.55;5.50;;;15.00;99.90;;;;;;5063753;28;20036;-65
2023/08/01 03:08:03;;;;;;;17.52;5.22;;;15.00;99.90;;;;;;5045956;28;20159;-64
2023/08/01 03:10:29;;;;;;;14.80;5.38;;;15.00;99.90;;;;;;5045271;28;20161;-64
2023/08/01 03:12:55;;;;;;;17.58;5.68;;;15.00;99.90;;;;;;5044231;28;20032;-65
2023/08/01 03:15:20;;;;;;;14.02;5.85;;;15.00;99.90;;;;;;5046330;28;20028;-64
2023/08/01 03:17:46;;;;;;;18.83;6.15;;;15.00;99.90;;;;;;5046099;28;20040;-63
2023/08/01 03:20:12;;;;;;;19.40;6.25;;;15.00;99.90;;;;;;5063428;28;20391;-63
2023/08/01 03:22:39;;;;;;;15.50;5.25;;;15.00;99.90;;;;;;5037114;28;20676;-64
2023/08/01 03:25:09;;;;;;;14.95;5.78;;;15.00;99.90;;;;;;5044793;28;20493;-64
2023/08/01 03:27:35;;;;;;;16.70;6.07;;;15.00;99.90;;;;;;5044522;28;20098;-64
2023/08/01 03:30:08;;;;;;;16.77;5.82;;;15.00;99.90;;;;;;5049330;28;20036;-64
2023/08/01 03:32:35;;;;;;;20.63;6.10;;;15.00;99.90;;;;;;5049580;28;20050;-64
2023/08/01 03:35:00;;;;;;;22.98;7.40;;;15.00;99.90;;;;;;5049503;28;20119;-63
2023/08/01 03:37:27;;;;;;;22.95;7.30;;;15.00;99.90;;;;;;5049082;28;20577;-64
2023/08/01 03:39:53;;;;;;;19.65;6.13;;;15.10;99.90;;;;;;5067172;28;20056;-65
2023/08/01 03:42:18;;;;;;;21.52;6.95;;;15.10;99.90;;;;;;5065940;28;20074;-63
2023/08/01 03:44:44;;;;;;;21.75;6.93;;;15.10;99.90;;;;;;5049992;28;20099;-67
2023/08/01 03:47:09;;;;;;;20.90;7.57;;;15.10;99.90;;;;;;5050185;28;20044;-67
2023/08/01 03:49:35;;;;;;;18.30;7.25;;;15.10;99.90;;;;;;5067203;28;20096;-63
2023/08/01 03:52:00;;;;;;;17.02;7.55;;;15.10;99.90;;;;;;5032468;28;20029;-63
2023/08/01 03:54:26;;;;;;;20.30;7.32;;;15.20;99.90;;;;;;5049028;28;20098;-63
2023/08/01 03:56:52;;;;;;;15.13;6.93;;;15.20;99.90;;;;;;5048411;28;20043;-64
2023/08/01 03:59:18;;;;;;;15.85;6.68;;;15.10;99.90;;;;;;5032533;28;20036;-67
2023/08/01 04:01:44;;;;;;;20.52;7.13;;;15.20;99.90;;;;;;5049468;28;20056;-68
2023/08/01 04:04:10;;;;;;;18.73;7.15;;;15.20;99.90;;;;;;5048990;28;20080;-67
2023/08/01 04:06:38;;;;;;;14.55;5.70;;;15.20;99.90;;;;;;5049441;28;20165;-66
2023/08/01 04:09:04;;;;;;;15.63;5.47;;;15.20;99.90;;;;;;5048453;28;20074;-67
2023/08/01 04:11:29;;;;;;;16.52;5.93;;;15.20;99.90;;;;;;5047950;28;20072;-63
2023/08/01 04:13:56;;;;;;;15.48;6.40;;;15.20;99.90;;;;;;5049375;28;20131;-64
2023/08/01 04:16:22;;;;;;;16.90;6.05;;;15.20;99.90;;;;;;5049228;28;20053;-63
2023/08/01 04:18:47;;;;;;;15.35;5.70;;;15.20;99.90;;;;;;5038519;28;20036;-64
2023/08/01 04:21:14;;;;;;;12.68;4.85;;;15.20;99.90;;;;;;5045275;28;20040;-63
2023/08/01 04:23:43;;;;;;;15.05;5.05;;;15.20;99.90;;;;;;5047321;28;20799;-64
2023/08/01 04:26:08;;;;;;;18.02;5.75;;;15.10;99.90;;;;;;5027504;28;20070;-64
2023/08/01 04:28:34;;;;;;;10.63;4.80;;;15.20;99.90;;;;;;5029051;28;20041;-64
2023/08/01 04:31:00;;;;;;;20.20;5.28;;;15.10;99.90;;;;;;5030053;28;20520;-62
2023/08/01 04:33:26;;;;;;;15.77;5.03;;;15.20;99.90;;;;;;5028612;28;20037;-64
2023/08/01 04:35:52;;;;;;;16.20;5.10;;;15.10;99.90;;;;;;5048525;28;20137;-65
2023/08/01 04:38:17;;;;;;;14.82;4.22;;;15.10;99.90;;;;;;5048099;28;20128;-67
2023/08/01 04:40:43;;;;;;;16.33;4.07;;;15.10;99.90;;;;;;5046763;28;20597;-66
2023/08/01 04:43:12;;;;;;;13.18;3.80;;;15.10;99.90;;;;;;5031347;28;20102;-71
2023/08/01 04:45:37;;;;;;;10.95;3.88;;;15.10;99.90;;;;;;5066779;28;20086;-65
2023/08/01 04:48:03;;;;;;;16.95;3.72;;;15.10;99.90;;;;;;5049104;28;20040;-66
2023/08/01 04:50:29;;;;;;;12.93;3.30;;;15.10;99.90;;;;;;5048529;28;20120;-63
2023/08/01 04:52:55;;;;;;;13.93;3.13;;;15.10;99.90;;;;;;5031103;28;20068;-63
2023/08/01 04:55:20;;;;;;;12.50;3.03;;;15.10;99.90;;;;;;5065817;28;20042;-64
2023/08/01 04:57:46;;;;;;;8.63;3.08;;;15.00;99.90;;;;;;5047740;28;20039;-65
2023/08/01 05:00:12;;;;;;;15.75;2.75;;;15.00;99.90;;;;;;5059912;28;20106;-64
2023/08/01 05:02:38;;;;;;;11.48;3.00;;;15.00;99.90;;;;;;5028684;28;20052;-64
2023/08/01 05:05:04;;;;;;;11.50;2.70;;;15.00;99.90;;;;;;5042013;28;20051;-67
2023/08/01 05:07:30;;;;;;;10.80;3.30;;;14.90;99.90;;;;;;5048794;28;20116;-68
2023/08/01 05:09:56;;;;;;;9.55;2.38;;;14.90;99.90;;;;;;5047789;28;20361;-67
2023/08/01 05:12:22;;;;;;;14.65;2.88;;;14.90;99.90;;;;;;5030309;28;20036;-64
2023/08/01 05:14:47;;;;;;;10.95;2.58;;;14.90;99.90;;;;;;5048370;28;20101;-63
2023/08/01 05:17:13;;;;;;;11.07;2.72;;;14.80;99.90;;;;;;5048574;28;20123;-64
2023/08/01 05:19:39;;;;;;;10.60;2.50;;;15.00;99.90;;;;;;5031498;28;20052;-66
2023/08/01 05:22:06;;;;;;;13.45;2.67;;;15.30;99.90;;;;;;5047904;28;20045;-66
2023/08/01 05:24:31;;;;;;;11.55;2.58;;;15.50;99.90;;;;;;5047349;28;20075;-68
2023/08/01 05:26:57;;;;;;;7.70;2.80;;;15.60;99.90;;;;;;5065249;28;20032;-65
2023/08/01 05:29:22;;;;;;;8.98;2.10;;;15.50;99.90;;;;;;5031764;28;20043;-64
2023/08/01 05:31:48;;;;;;;9.90;2.33;;;15.50;99.90;;;;;;5030901;28;20098;-65
2023/08/01 05:34:14;;;;;;;8.80;2.15;;;15.50;99.90;;;;;;5041365;28;20523;-63
2023/08/01 05:36:39;;;;;;;10.20;2.25;;;15.50;99.90;;;;;;5045793;28;20040;-62
2023/08/01 05:39:05;;;;;;;8.35;1.85;;;15.40;99.90;;;;;;5038908;28;20040;-67
2023/08/01 05:41:31;;;;;;;6.57;2.17;;;15.40;99.90;;;;;;5046139;28;20077;-63
2023/08/01 05:43:58;;;;;;;12.20;2.25;;;15.30;99.90;;;;;;5064160;28;20048;-66
2023/08/01 05:46:23;;;;;;;7.25;2.05;;;15.40;99.90;;;;;;5048411;28;20043;-64
2023/08/01 05:48:49;;;;;;;7.75;2.50;;;15.60;99.90;;;;;;5047832;28;20032;-65
2023/08/01 05:51:15;;;;;;;8.50;2.28;;;15.80;99.90;;;;;;5045856;28;20093;-66
2023/08/01 05:53:41;;;;;;;7.85;2.00;;;16.00;99.90;;;;;;5046469;28;20043;-67
2023/08/01 05:56:06;;;;;;;6.20;2.10;;;16.20;99.90;;;;;;5046157;28;20135;-66
2023/08/01 05:58:32;;;;;;;9.05;2.67;;;16.10;99.90;;;;;;5065481;28;20041;-65
2023/08/01 06:00:58;;;;;;;6.70;2.17;;;16.30;99.90;;;;;;5047452;28;20048;-71
2023/08/01 06:03:23;;;;;;;9.10;2.17;;;16.30;99.90;;;;;;5046555;28;20458;-68
2023/08/01 06:05:49;;;;;;;10.32;2.50;;;16.30;99.90;;;;;;5027956;28;20854;-69
2023/08/01 06:08:15;;;;;;;7.80;2.10;;;16.10;99.90;;;;;;5031945;28;20116;-65
2023/08/01 06:10:41;;;;;;;6.70;2.10;;;16.10;99.90;;;;;;5025847;28;20040;-68
2023/08/01 06:13:07;;;;;;;6.60;2.80;;;16.10;99.90;;;;;;5030853;28;20384;-66
2023/08/01 06:15:33;;;;;;;10.00;1.95;;;16.10;99.90;;;;;;5046212;28;20048;-66
2023/08/01 06:17:58;;;;;;;6.05;2.10;;;16.10;99.90;;;;;;5053806;28;20101;-66
2023/08/01 06:20:24;;;;;;;6.65;2.00;;;16.10;99.90;;;;;;5063033;28;20040;-70
2023/08/01 06:22:49;;;;;;;9.40;2.15;;;16.00;99.90;;;;;;5027853;28;20147;-67
2023/08/01 06:25:15;;;;;;;8.07;2.00;;;16.00;99.90;;;;;;5062871;28;20036;-69
2023/08/01 06:27:41;;;;;;;10.13;2.30;;;15.90;99.90;;;;;;5045383;28;20107;-69
2023/08/01 06:30:07;;;;;;;11.60;2.55;;;15.90;99.90;;;;;;5064015;28;20586;-67
2023/08/01 06:32:33;;;;;;;10.55;2.40;;;15.80;99.90;;;;;;5045550;28;20055;-67
2023/08/01 06:34:58;;;;;;;10.35;2.47;;;15.80;99.90;;;;;;5052344;28;20431;-66
2023/08/01 06:37:24;;;;;;;10.20;2.35;;;15.70;99.90;;;;;;5046892;28;20207;-65
2023/08/01 06:39:50;;;;;;;8.32;2.42;;;15.60;99.90;;;;;;5063560;28;20043;-67
2023/08/01 06:42:16;;;;;;;9.48;2.17;;;15.60;99.90;;;;;;5062588;28;20032;-69
2023/08/01 06:44:42;;;;;;;10.05;2.80;;;15.50;99.90;;;;;;5062106;28;20041;-65
2023/08/01 06:47:07;;;;;;;7.70;2.72;;;15.50;99.90;;;;;;5046624;28;20044;-66
2023/08/01 06:49:33;;;;;;;11.25;2.95;;;15.50;99.90;;;;;;5046182;28;20770;-67
2023/08/01 06:51:58;;;;;;;7.97;2.83;;;15.50;99.90;;;;;;5063851;28;20590;-68
2023/08/01 06:54:24;;;;;;;10.25;2.55;;;15.50;99.90;;;;;;5031823;28;20190;-67
2023/08/01 06:56:50;;;;;;;7.68;2.33;;;15.50;99.90;;;;;;5025110;28;20530;-66
2023/08/01 06:59:16;;;;;;;9.10;2.95;;;15.50;99.90;;;;;;5032075;28;20044;-71
2023/08/01 07:01:43;;;;;;;10.60;3.03;;;15.50;99.90;;;;;;5029638;28;20079;-68
2023/08/01 07:04:13;;;;;;;9.60;2.78;;;15.50;99.90;;;;;;5045400;28;20041;-69
2023/08/01 07:06:39;;;;;;;11.85;2.80;;;15.50;99.90;;;;;;5029789;28;20127;-66
2023/08/01 07:09:05;;;;;;;9.23;2.78;;;15.60;99.90;;;;;;5045167;28;20048;-67
2023/08/01 07:11:31;;;;;;;9.80;2.70;;;15.60;99.90;;;;;;5044643;28;20041;-69
2023/08/01 07:13:57;;;;;;;11.43;3.10;;;15.70;99.90;;;;;;5038707;28;20562;-68
2023/08/01 07:16:22;;;;;;;9.20;2.35;;;15.80;99.90;;;;;;5026179;28;20045;-69
2023/08/01 07:18:48;;;;;;;9.05;2.80;;;15.80;99.90;;;;;;5027036;28;21853;-66
2023/08/01 07:21:14;;;;;;;9.55;2.38;;;15.80;99.90;;;;;;5042210;28;20575;-69
2023/08/01 07:23:39;;;;;;;6.78;2.25;;;15.90;99.90;;;;;;5033801;28;20052;-65
2023/08/01 07:26:05;;;;;;;7.60;2.15;;;15.90;99.90;;;;;;5044947;28;20099;-67
2023/08/01 07:28:31;;;;;;;8.82;2.05;;;15.90;99.90;;;;;;5064031;28;20032;-71
2023/08/01 07:31:01;;;;;;;6.70;1.90;;;16.00;99.90;;;;;;5044044;28;20037;-63
2023/08/01 07:33:27;;;;;;;7.15;1.92;;;15.90;99.90;;;;;;5026598;28;20396;-66
2023/08/01 07:35:52;;;;;;;11.73;2.83;;;15.90;99.90;;;;;;5026286;28;20048;-65
2023/08/01 07:38:18;;;;;;;11.05;2.25;;;15.90;99.90;;;;;;5032945;28;20032;-71
2023/08/01 07:40:43;;;;;;;9.95;2.25;;;15.90;99.90;;;;;;5044714;28;20102;-68
2023/08/01 07:43:09;;;;;;;9.93;2.47;;;15.80;99.90;;;;;;5045462;28;20144;-65
2023/08/01 07:45:35;;;;;;;11.77;2.47;;;15.80;99.90;;;;;;5044557;28;20543;-67
2023/08/01 07:48:00;;;;;;;7.50;2.38;;;15.80;99.90;;;;;;5044402;28;20571;-67
2023/08/01 07:50:26;;;;;;;9.07;2.22;;;15.80;99.90;;;;;;5043702;28;20533;-66
2023/08/01 07:52:52;;;;;;;9.15;2.20;;;15.80;99.90;;;;;;5026578;28;20047;-68
2023/08/01 07:55:18;;;;;;;13.85;2.28;;;15.80;99.90;;;;;;5044059;28;20506;-67
2023/08/01 07:57:44;;;;;;;11.18;2.05;;;15.80;99.90;;;;;;5040786;28;20069;-66
2023/08/01 08:00:10;;;;;;;10.10;2.17;;;15.80;99.90;;;;;;5026356;28;20536;-66
2023/08/01 08:02:36;;;;;;;12.98;2.20;;;15.80;99.90;;;;;;5030235;28;20064;-65
2023/08/01 08:05:02;;;;;;;10.95;1.98;;;15.80;99.90;;;;;;5028663;28;20045;-66
2023/08/01 08:07:28;;;;;;;9.27;2.20;;;15.70;99.90;;;;;;5045642;28;20037;-67
2023/08/01 08:09:55;;;;;;;11.65;2.00;;;15.70;99.90;;;;;;5028253;28;20393;-71
2023/08/01 08:12:21;;;;;;;6.25;1.90;;;15.60;99.90;;;;;;5062212;28;20041;-67
2023/08/01 08:14:47;;;;;;;8.50;2.05;;;15.60;99.90;;;;;;5064541;28;20480;-67
2023/08/01 08:17:13;;;;;;;7.88;2.03;;;15.50;99.90;;;;;;5067327;28;20132;-65
2023/08/01 08:19:39;;;;;;;8.73;2.05;;;15.50;99.90;;;;;;5047040;28;20127;-66
2023/08/01 08:22:04;;;;;;;5.88;1.80;;;15.60;99.90;;;;;;5047545;28;20048;-65
2023/08/01 08:24:30;;;;;;;10.73;2.33;;;15.60;99.90;;;;;;5030345;28;20099;-65
2023/08/01 08:26:56;;;;;;;8.02;1.90;;;15.70;99.90;;;;;;5031440;28;20571;-66
2023/08/01 08:29:22;;;;;;;8.18;2.00;;;15.70;99.90;;;;;;5047947;28;20032;-66
2023/08/01 08:31:47;;;;;;;11.38;2.78;;;15.80;99.90;;;;;;5067452;28;20037;-71
2023/08/01 08:34:13;;;;;;;8.27;2.42;;;15.80;99.90;;;;;;5048590;28;20037;-69
2023/08/01 08:36:39;;;;;;;8.77;1.90;;;15.80;99.90;;;;;;5066699;28;20041;-66
2023/08/01 08:39:04;;;;;;;11.10;2.05;;;15.80;99.90;;;;;;5047693;28;20783;-67
2023/08/01 08:41:37;;;;;;;7.45;2.13;;;15.80;99.90;;;;;;5047357;28;20075;-70
2023/08/01 08:44:07;;;;;;;10.68;2.00;;;15.70;99.90;;;;;;5066974;28;20053;-67
2023/08/01 08:46:38;;;;;;;7.97;2.05;;;15.70;99.90;;;;;;5048160;28;20049;-66
2023/08/01 08:49:05;;;;;;;7.97;1.75;;;15.70;99.90;;;;;;5066379;28;20035;-64
2023/08/01 08:51:31;;;;;;;5.95;1.60;;;15.70;99.90;;;;;;5048301;28;20040;-67
2023/08/01 08:53:57;;;;;;;7.00;1.98;;;15.60;99.90;;;;;;5065801;28;20051;-69
2023/08/01 08:56:23;;;;;;;8.77;1.80;;;15.70;99.90;;;;;;5063901;28;20119;-64
2023/08/01 08:58:49;;;;;;;6.43;1.95;;;15.70;99.90;;;;;;5031698;28;20036;-66
2023/08/01 09:01:17;;;;;;;7.20;1.80;;;15.70;99.90;;;;;;5048519;28;20052;-66
2023/08/01 09:03:44;;;;;;;8.70;2.05;;;15.70;99.90;;;;;;5047415;28;20058;-67
2023/08/01 09:06:14;;;;;;;10.95;2.22;;;15.70;99.90;;;;;;5066415;28;20051;-64
2023/08/01 09:08:44;;;;;;;7.95;1.98;;;15.70;99.90;;;;;;5047555;28;20040;-66
2023/08/01 09:11:09;;;;;;;7.55;2.40;;;15.70;99.90;;;;;;5017852;28;20079;-65
2023/08/01 09:13:35;;;;;;;9.90;2.50;;;15.70;99.90;;;;;;5046111;28;20088;-68
2023/08/01 09:16:02;;;;;;;8.82;2.33;;;15.70;99.90;;;;;;5012072;28;20044;-66
2023/08/01 09:18:28;;;;;;;9.57;2.38;;;15.70;99.90;;;;;;5058649;28;20400;-65
2023/08/01 09:20:53;;;;;;;11.48;2.88;;;15.70;99.90;;;;;;5047482;28;20040;-68
2023/08/01 09:23:19;;;;;;;8.63;2.20;;;15.80;99.90;;;;;;5047287;28;20083;-65
2023/08/01 09:25:45;;;;;;;8.35;2.20;;;15.90;99.90;;;;;;5063206;28;20547;-66
2023/08/01 09:28:22;;;;;;;9.25;2.47;;;16.00;99.90;;;;;;5066375;28;20119;-70
2023/08/01 09:30:51;;;;;;;7.43;2.00;;;16.10;99.90;;;;;;5047239;28;20040;-68
2023/08/01 09:33:18;;;;;;;10.75;2.53;;;16.20;99.90;;;;;;5047953;28;20040;-62
2023/08/01 09:35:45;;;;;;;8.30;2.40;;;16.30;99.90;;;;;;5047577;28;20048;-70
2023/08/01 09:38:15;;;;;;;9.65;1.95;;;16.20;99.90;;;;;;5065234;28;20051;-68
2023/08/01 09:40:42;;;;;;;8.80;2.30;;;16.20;99.90;;;;;;5063871;28;20131;-66
2023/08/01 09:43:09;;;;;;;9.20;2.03;;;16.20;99.90;;;;;;5047476;28;20127;-68
2023/08/01 09:45:34;;;;;;;6.55;1.80;;;16.20;99.90;;;;;;5031086;28;20545;-66
2023/08/01 09:48:00;;;;;;;7.55;2.10;;;16.20;99.90;;;;;;5030779;28;20047;-67
2023/08/01 09:50:26;;;;;;;9.05;2.03;;;16.20;99.90;;;;;;5047376;28;20484;-67
2023/08/01 09:52:52;;;;;;;8.88;2.30;;;16.30;99.90;;;;;;5064527;28;20082;-68
2023/08/01 09:55:34;;;;;;;11.13;2.22;;;16.40;99.90;;;;;;5046500;28;20048;-69
2023/08/01 09:58:01;;;;;;;6.50;1.85;;;16.50;99.90;;;;;;5046195;28;20043;-70
2023/08/01 10:00:27;;;;;;;6.38;1.85;;;16.60;99.90;;;;;;5047425;28;20040;-67
2023/08/01 10:03:01;;;;;;;5.95;1.70;;;16.60;99.90;;;;;;5047096;28;20508;-67
2023/08/01 10:05:30;;;;;;;7.28;1.98;;;16.50;99.90;;;;;;5030211;28;20079;-66
2023/08/01 10:07:59;;;;;;;5.40;1.80;;;16.60;99.90;;;;;;5065057;28;20090;-68
2023/08/01 10:10:25;;;;;;;5.65;1.58;;;16.60;99.90;;;;;;5046462;28;20080;-67
2023/08/01 10:12:53;;;;;;;5.47;1.48;;;16.70;99.90;;;;;;5045316;28;20044;-65
2023/08/01 10:15:19;;;;;;;5.95;1.65;;;16.80;99.90;;;;;;5065446;28;20498;-71
2023/08/01 10:17:47;;;;;;;6.90;1.80;;;17.00;99.90;;;;;;5034744;28;20058;-65
2023/08/01 10:20:14;;;;;;;6.15;1.90;;;17.00;99.90;;;;;;5027730;28;20045;-68
2023/08/01 10:22:41;;;;;;;6.55;1.80;;;17.00;99.90;;;;;;5026403;28;20033;-70
2023/08/01 10:25:10;;;;;;;6.60;1.80;;;17.10;99.90;;;;;;5045255;28;20098;-65
2023/08/01 10:27:36;;;;;;;6.40;1.85;;;17.10;99.90;;;;;;5046159;28;20059;-66
2023/08/01 10:30:04;;;;;;;6.40;1.92;;;17.10;99.90;;;;;;5046485;28;20040;-65
2023/08/01 10:32:34;;;;;;;7.95;2.00;;;17.00;99.90;;;;;;5029773;28;20080;-65
2023/08/01 10:35:00;;;;;;;6.50;2.00;;;16.80;99.90;;;;;;5053450;28;20036;-65
2023/08/01 10:37:27;;;;;;;9.75;2.08;;;16.70;99.90;;;;;;5026148;28;20071;-67
2023/08/01 10:40:00;;;;;;;9.73;2.33;;;16.50;99.90;;;;;;5045673;28;20048;-64
2023/08/01 10:42:26;;;;;;;9.63;2.50;;;16.50;99.90;;;;;;5045298;28;20051;-64
2023/08/01 10:44:51;;;;;;;8.43;2.75;;;16.40;99.90;;;;;;5045891;28;20078;-70
2023/08/01 10:47:27;;;;;;;9.82;3.30;;;16.40;99.90;;;;;;5047004;28;20637;-67
2023/08/01 10:49:56;;;;;;;6.60;2.50;;;16.40;99.90;;;;;;5064508;28;20743;-64
2023/08/01 10:52:29;;;;;;;9.07;2.80;;;16.40;99.90;;;;;;5045776;28;20048;-65
2023/08/01 10:55:01;;;;;;;12.77;3.40;;;16.50;99.90;;;;;;5063572;28;20044;-68
2023/08/01 10:57:28;;;;;;;11.90;3.50;;;16.60;99.90;;;;;;5063720;28;20420;-63
2023/08/01 10:59:55;;;;;;;12.93;4.10;;;16.80;99.90;;;;;;5029591;28;20503;-68
2023/08/01 11:02:24;;;;;;;10.10;3.45;;;17.00;99.90;;;;;;5045748;28;20585;-64
2023/08/01 11:04:56;;;;;;;14.02;3.80;;;17.20;99.90;;;;;;5045748;28;20052;-66
2023/08/01 11:07:22;;;;;;;11.68;3.30;;;17.20;99.90;;;;;;5046115;28;20734;-66
2023/08/01 11:09:47;;;;;;;9.68;2.42;;;17.30;99.90;;;;;;5063653;28;20112;-67
2023/08/01 11:12:13;;;;;;;10.98;2.45;;;17.20;99.90;;;;;;5044851;28;20095;-66
2023/08/01 11:14:39;;;;;;;9.40;2.35;;;17.10;99.90;;;;;;5063979;28;20115;-65
2023/08/01 11:17:04;;;;;;;12.98;2.97;;;16.90;99.90;;;;;;5046148;28;20076;-67
2023/08/01 11:19:30;;;;;;;12.38;2.50;;;16.80;99.90;;;;;;5045660;28;20102;-68
2023/08/01 11:21:57;;;;;;;8.90;2.20;;;16.80;99.90;;;;;;5045960;28;20412;-71
2023/08/01 11:24:24;;;;;;;8.18;2.67;;;17.10;99.90;;;;;;5045561;28;20044;-65
2023/08/01 11:26:51;;;;;;;11.50;2.20;;;17.20;99.90;;;;;;5044697;28;20127;-66
2023/08/01 11:29:18;;;;;;;11.80;2.35;;;17.40;99.90;;;;;;5029451;28;20074;-66
2023/08/01 11:31:54;;;;;;;13.13;2.05;;;17.60;99.90;;;;;;5045579;28;20462;-65
2023/08/01 11:34:21;;;;;;;11.10;2.20;;;17.70;99.90;;;;;;5028617;28;20138;-66
2023/08/01 11:36:47;;;;;;;9.98;2.30;;;17.80;99.90;;;;;;5063009;28;20422;-68
2023/08/01 11:39:14;;;;;;;8.02;2.03;;;17.90;99.90;;;;;;5030929;28;20310;-68
2023/08/01 11:41:40;;;;;;;7.78;1.70;;;18.00;99.90;;;;;;5024811;28;20041;-64
2023/08/01 11:44:06;;;;;;;7.05;1.52;;;18.10;99.90;;;;;;5042563;28;20499;-68
2023/08/01 11:46:32;;;;;;;8.15;2.13;;;18.10;99.90;;;;;;5026213;28;20033;-72
2023/08/01 11:48:59;;;;;;;10.48;2.05;;;18.30;99.90;;;;;;5058266;28;20179;-67
2023/08/01 11:51:25;;;;;;;8.02;1.80;;;18.40;99.90;;;;;;5048931;28;20054;-61
2023/08/01 11:54:03;;;;;;;8.32;1.50;;;18.40;99.90;;;;;;5040778;28;20415;-64
2023/08/01 11:56:30;;;;;;;8.25;1.60;;;18.30;99.90;;;;;;5028954;28;20130;-64
2023/08/01 11:58:55;;;;;;;9.50;1.73;;;18.20;99.90;;;;;;5030063;28;20049;-65
2023/08/01 12:01:22;;;;;;;8.00;1.63;;;18.10;99.90;;;;;;5059812;28;20070;-64
2023/08/01 12:03:53;;;;;;;7.35;1.70;;;18.10;99.90;;;;;;5049576;28;20040;-69
2023/08/01 12:06:21;;;;;;;8.85;1.90;;;18.10;99.90;;;;;;5043826;28;20033;-64
2023/08/01 12:08:48;;;;;;;9.60;1.45;;;18.20;99.90;;;;;;5036613;28;20501;-66
2023/08/01 12:11:25;;;;;;;7.55;1.60;;;18.40;99.90;;;;;;5047878;28;20048;-66
2023/08/01 12:14:11;;;;;;;7.85;1.73;;;18.40;99.90;;;;;;5067407;28;20040;-69
2023/08/01 12:16:44;;;;;;;8.02;1.63;;;18.50;99.90;;;;;;5048953;28;20056;-63
2023/08/01 12:19:10;;;;;;;8.38;1.63;;;18.60;99.90;;;;;;5049058;28;20121;-62
2023/08/01 12:21:36;;;;;;;11.15;2.13;;;18.70;99.90;;;;;;5048990;28;20428;-64
2023/08/01 12:24:02;;;;;;;9.25;1.67;;;18.60;99.90;;;;;;5039001;28;20133;-64
2023/08/01 12:26:28;;;;;;;7.93;1.60;;;18.50;99.90;;;;;;5028164;28;20115;-70
2023/08/01 12:28:54;;;;;;;10.18;1.50;;;18.30;99.90;;;;;;5029103;28;20044;-67
2023/08/01 12:31:21;;;;;;;9.73;1.70;;;18.20;99.90;;;;;;5047394;28;20547;-64
2023/08/01 12:33:47;;;;;;;8.48;1.73;;;18.00;99.90;;;;;;5044855;28;20415;-65
2023/08/01 12:36:14;;;;;;;12.48;2.38;;;17.90;99.90;;;;;;5049008;28;20192;-66